createdAt,value
2022-10-25T00:02:12.403Z,100594.38
2022-10-25T00:04:39.878Z,100593.88
2022-10-25T00:07:06.656Z,100592.78
2022-10-25T00:09:33.430Z,100594.25
2022-10-25T00:12:00.169Z,100587.66
2022-10-25T00:14:26.962Z,100586.38
2022-10-25T00:16:53.721Z,100586.91
2022-10-25T00:19:20.456Z,100591.03
2022-10-25T00:21:47.219Z,100584.38
2022-10-25T00:24:13.990Z,100589.41
2022-10-25T00:26:42.165Z,100591.88
2022-10-25T00:29:08.993Z,100587.66
2022-10-25T00:31:35.819Z,100590.94
2022-10-25T00:34:02.570Z,100591.63
2022-10-25T00:36:29.305Z,100595.97
2022-10-25T00:38:56.081Z,100584.75
2022-10-25T00:41:22.847Z,100585.84
2022-10-25T00:43:49.633Z,100592.19
2022-10-25T00:46:16.414Z,100593.72
2022-10-25T00:48:43.219Z,100596.50
2022-10-25T00:51:09.948Z,100596.16
2022-10-25T00:53:36.713Z,100594.84
2022-10-25T00:56:03.462Z,100599.72
2022-10-25T00:58:30.208Z,100603.66
2022-10-25T01:00:57.036Z,100601.56
2022-10-25T01:03:23.839Z,100605.75
2022-10-25T01:05:50.576Z,100603.00
2022-10-25T01:08:17.374Z,100607.72
2022-10-25T01:10:44.137Z,100604.97
2022-10-25T01:13:10.884Z,100603.31
2022-10-25T01:15:37.645Z,100605.72
2022-10-25T01:18:04.391Z,100606.69
2022-10-25T01:20:31.150Z,100606.22
2022-10-25T01:22:57.908Z,100600.13
2022-10-25T01:25:24.651Z,100589.06
2022-10-25T01:27:51.412Z,100599.94
2022-10-25T01:30:18.214Z,100587.84
2022-10-25T01:32:45.326Z,100594.78
2022-10-25T01:35:12.277Z,100607.06
2022-10-25T01:37:39.031Z,100611.25
2022-10-25T01:40:05.772Z,100604.31
2022-10-25T01:42:32.522Z,100590.34
2022-10-25T01:44:59.271Z,100598.88
2022-10-25T01:47:26.030Z,100595.34
2022-10-25T01:49:52.772Z,100597.41
2022-10-25T01:52:19.521Z,100594.44
2022-10-25T01:54:46.314Z,100590.06
2022-10-25T01:57:13.053Z,100595.69
2022-10-25T01:59:40.150Z,100597.69
2022-10-25T02:02:06.905Z,100597.25
2022-10-25T02:04:33.649Z,100594.75
2022-10-25T02:07:00.397Z,100598.88
2022-10-25T02:09:27.144Z,100592.53
2022-10-25T02:11:53.887Z,100605.50
2022-10-25T02:14:20.700Z,100604.31
2022-10-25T02:16:47.441Z,100606.22
2022-10-25T02:19:14.180Z,100589.88
2022-10-25T02:21:40.932Z,100600.09
2022-10-25T02:24:07.725Z,100590.16
2022-10-25T02:26:34.468Z,100600.41
2022-10-25T02:29:01.285Z,100603.31
2022-10-25T02:31:28.060Z,100598.38
2022-10-25T02:33:54.877Z,100600.56
2022-10-25T02:36:21.651Z,100604.91
2022-10-25T02:38:48.404Z,100601.56
2022-10-25T02:41:15.198Z,100598.47
2022-10-25T02:43:41.945Z,100600.97
2022-10-25T02:46:08.736Z,100611.53
2022-10-25T02:48:35.505Z,100606.84
2022-10-25T02:51:02.302Z,100610.19
2022-10-25T02:53:29.038Z,100618.13
2022-10-25T02:55:55.777Z,100620.41
2022-10-25T02:58:22.534Z,100625.28
2022-10-25T03:00:49.327Z,100622.63
2022-10-25T03:03:16.095Z,100621.47
2022-10-25T03:05:42.854Z,100618.66
2022-10-25T03:08:09.593Z,100625.91
2022-10-25T03:10:36.350Z,100636.59
2022-10-25T03:13:03.104Z,100644.53
2022-10-25T03:15:29.846Z,100641.63
2022-10-25T03:17:56.617Z,100635.22
2022-10-25T03:20:23.368Z,100646.38
2022-10-25T03:22:50.112Z,100644.81
2022-10-25T03:25:16.939Z,100644.47
2022-10-25T03:27:43.858Z,100641.03
2022-10-25T03:30:10.873Z,100646.38
2022-10-25T03:32:37.626Z,100653.94
2022-10-25T03:35:04.458Z,100655.97
2022-10-25T03:37:31.229Z,100650.44
2022-10-25T03:39:57.977Z,100643.63
2022-10-25T03:42:24.787Z,100643.78
2022-10-25T03:44:51.671Z,100634.00
2022-10-25T03:47:18.533Z,100648.94
2022-10-25T03:49:45.299Z,100655.78
2022-10-25T03:52:12.053Z,100655.94
2022-10-25T03:54:38.874Z,100652.28
2022-10-25T03:57:05.679Z,100657.59
2022-10-25T03:59:32.432Z,100661.31
2022-10-25T04:01:59.213Z,100661.47
2022-10-25T04:04:26.004Z,100655.84
2022-10-25T04:06:52.761Z,100663.25
2022-10-25T04:09:19.505Z,100671.44
2022-10-25T04:11:46.255Z,100676.47
2022-10-25T04:14:13.529Z,100672.22
2022-10-25T04:16:40.273Z,100675.69
2022-10-25T04:19:07.055Z,100669.94
2022-10-25T04:21:33.817Z,100678.84
2022-10-25T04:24:03.474Z,100673.94
2022-10-25T04:26:31.365Z,100673.41
2022-10-25T04:28:58.239Z,100669.75
2022-10-25T04:31:25.020Z,100673.53
2022-10-25T04:33:51.915Z,100660.00
2022-10-25T04:36:18.682Z,100667.66
2022-10-25T04:38:45.428Z,100671.97
2022-10-25T04:41:12.273Z,100689.75
2022-10-25T04:43:39.025Z,100685.69
2022-10-25T04:46:05.771Z,100681.06
2022-10-25T04:48:32.536Z,100679.50
2022-10-25T04:50:59.531Z,100679.09
2022-10-25T04:53:26.268Z,100676.09
2022-10-25T04:55:53.032Z,100679.53
2022-10-25T04:58:19.810Z,100690.38
2022-10-25T05:00:46.556Z,100689.59
2022-10-25T05:03:13.484Z,100686.81
2022-10-25T05:05:40.641Z,100679.47
2022-10-25T05:08:07.376Z,100678.00
2022-10-25T05:10:34.145Z,100688.25
2022-10-25T05:13:01.815Z,100688.09
2022-10-25T05:15:28.565Z,100687.06
2022-10-25T05:17:55.312Z,100689.53
2022-10-25T05:20:22.225Z,100690.25
2022-10-25T05:22:49.371Z,100695.22
2022-10-25T05:25:16.464Z,100700.31
2022-10-25T05:27:43.206Z,100698.53
2022-10-25T05:30:09.973Z,100700.16
2022-10-25T05:32:36.761Z,100704.75
2022-10-25T05:35:03.519Z,100716.16
2022-10-25T05:37:30.264Z,100714.69
2022-10-25T05:39:57.036Z,100718.81
2022-10-25T05:42:23.784Z,100720.59
2022-10-25T05:44:50.597Z,100716.81
2022-10-25T05:47:17.359Z,100716.13
2022-10-25T05:49:44.133Z,100732.56
2022-10-25T05:52:11.247Z,100723.97
2022-10-25T05:54:38.059Z,100725.38
2022-10-25T05:57:04.812Z,100734.66
2022-10-25T05:59:31.592Z,100744.72
2022-10-25T06:01:58.541Z,100743.28
2022-10-25T06:04:25.487Z,100739.72
2022-10-25T06:06:53.023Z,100741.84
2022-10-25T06:09:19.959Z,100740.28
2022-10-25T06:11:46.778Z,100744.38
2022-10-25T06:14:13.524Z,100744.34
2022-10-25T06:16:40.340Z,100745.47
2022-10-25T06:19:07.095Z,100744.78
2022-10-25T06:21:33.856Z,100755.06
2022-10-25T06:24:00.671Z,100758.09
2022-10-25T06:26:27.418Z,100756.97
2022-10-25T06:28:54.205Z,100762.44
2022-10-25T06:31:21.027Z,100772.19
2022-10-25T06:33:47.878Z,100777.16
2022-10-25T06:36:15.377Z,100787.00
2022-10-25T06:38:42.141Z,100782.13
2022-10-25T06:41:08.893Z,100787.53
2022-10-25T06:43:35.650Z,100786.91
2022-10-25T06:46:02.421Z,100788.66
2022-10-25T06:48:29.397Z,100789.72
2022-10-25T06:50:56.149Z,100789.19
2022-10-25T06:53:22.960Z,100791.94
2022-10-25T06:55:49.756Z,100785.91
2022-10-25T06:58:16.494Z,100799.06
2022-10-25T07:00:46.009Z,100796.91
2022-10-25T07:03:15.607Z,100799.91
2022-10-25T07:05:42.360Z,100790.91
2022-10-25T07:08:09.226Z,100792.06
2022-10-25T07:10:35.983Z,100798.16
2022-10-25T07:13:02.737Z,100800.66
2022-10-25T07:15:29.500Z,100802.72
2022-10-25T07:17:56.342Z,100803.09
2022-10-25T07:20:23.106Z,100813.81
2022-10-25T07:22:50.172Z,100813.47
2022-10-25T07:25:16.904Z,100821.84
2022-10-25T07:27:43.658Z,100823.03
2022-10-25T07:30:10.436Z,100831.50
2022-10-25T07:32:41.486Z,100826.19
2022-10-25T07:35:09.316Z,100834.63
2022-10-25T07:37:36.088Z,100821.38
2022-10-25T07:40:02.849Z,100825.78
2022-10-25T07:42:29.648Z,100832.81
2022-10-25T07:44:56.491Z,100829.41
2022-10-25T07:47:23.241Z,100838.53
2022-10-25T07:49:49.992Z,100841.75
2022-10-25T07:52:16.754Z,100838.91
2022-10-25T07:57:15.171Z,100843.81
2022-10-25T07:59:41.947Z,100847.94
2022-10-25T08:02:08.693Z,100846.44
2022-10-25T08:04:35.429Z,100853.47
2022-10-25T08:07:02.251Z,100844.53
2022-10-25T08:09:40.039Z,100843.69
2022-10-25T08:12:06.803Z,100852.13
2022-10-25T08:14:35.173Z,100853.28
2022-10-25T08:17:04.984Z,100841.41
2022-10-25T08:19:31.800Z,100852.06
2022-10-25T08:21:58.537Z,100852.53
2022-10-25T08:24:25.482Z,100856.16
2022-10-25T08:26:52.274Z,100856.06
2022-10-25T08:29:19.035Z,100855.13
2022-10-25T08:31:45.870Z,100850.50
2022-10-25T08:34:12.692Z,100852.13
2022-10-25T08:36:39.438Z,100859.16
2022-10-25T08:39:06.189Z,100855.88
2022-10-25T08:41:32.953Z,100851.72
2022-10-25T08:46:27.478Z,100861.94
2022-10-25T08:48:54.240Z,100863.78
2022-10-25T08:51:20.978Z,100867.41
2022-10-25T08:53:48.415Z,100876.34
2022-10-25T08:56:17.239Z,100876.09
2022-10-25T08:58:45.332Z,100884.06
2022-10-25T09:01:12.203Z,100894.53
2022-10-25T09:06:10.732Z,100886.94
2022-10-25T09:08:37.528Z,100892.22
2022-10-25T09:11:04.291Z,100895.47
2022-10-25T09:13:31.155Z,100899.31
2022-10-25T09:15:58.421Z,100900.41
2022-10-25T09:18:25.210Z,100904.25
2022-10-25T09:20:51.956Z,100898.63
2022-10-25T09:23:18.755Z,100908.72
2022-10-25T09:25:45.565Z,100909.16
2022-10-25T09:28:12.325Z,100906.44
2022-10-25T09:30:39.075Z,100915.25
2022-10-25T09:33:05.902Z,100920.56
2022-10-25T09:35:32.817Z,100926.72
2022-10-25T09:37:59.601Z,100931.03
2022-10-25T09:40:26.380Z,100924.69
2022-10-25T09:42:53.187Z,100926.91
2022-10-25T09:45:20.025Z,100937.47
2022-10-25T09:47:47.059Z,100938.19
2022-10-25T09:50:13.956Z,100939.84
2022-10-25T09:52:40.892Z,100940.72
2022-10-25T09:55:07.707Z,100939.91
2022-10-25T09:57:34.469Z,100947.88
2022-10-25T10:00:01.212Z,100954.53
2022-10-25T10:02:28.101Z,100959.16
2022-10-25T10:04:54.985Z,100959.06
2022-10-25T10:07:21.734Z,100949.91
2022-10-25T10:09:48.490Z,100958.59
2022-10-25T10:12:15.281Z,100956.06
2022-10-25T10:14:42.024Z,100956.47
2022-10-25T10:17:08.798Z,100956.72
2022-10-25T10:19:35.560Z,100951.97
2022-10-25T10:22:02.357Z,100955.22
2022-10-25T10:24:29.618Z,100950.50
2022-10-25T10:26:57.159Z,100958.38
2022-10-25T10:29:23.964Z,100948.22
2022-10-25T10:31:50.762Z,100954.88
2022-10-25T10:34:17.521Z,100955.63
2022-10-25T10:36:45.703Z,100945.72
2022-10-25T10:39:12.549Z,100952.03
2022-10-25T10:41:39.313Z,100951.94
2022-10-25T10:44:06.105Z,100951.84
2022-10-25T10:46:32.921Z,100952.72
2022-10-25T10:48:59.678Z,100955.72
2022-10-25T10:51:43.125Z,100952.25
2022-10-25T10:54:11.058Z,100956.44
2022-10-25T10:56:37.802Z,100952.91
2022-10-25T10:59:04.564Z,100950.50
2022-10-25T11:01:32.157Z,100958.94
2022-10-25T11:04:00.737Z,100960.03
2022-10-25T11:06:27.833Z,100956.13
2022-10-25T11:08:54.619Z,100966.44
2022-10-25T11:11:21.438Z,100969.13
2022-10-25T11:13:51.126Z,100970.06
2022-10-25T11:16:18.546Z,100959.22
2022-10-25T11:18:45.323Z,100961.56
2022-10-25T11:21:12.078Z,100963.22
2022-10-25T11:23:38.861Z,100960.53
2022-10-25T11:26:05.635Z,100961.50
2022-10-25T11:28:32.409Z,100965.47
2022-10-25T11:30:59.173Z,100965.66
2022-10-25T11:33:26.000Z,100976.28
2022-10-25T11:35:52.752Z,100964.75
2022-10-25T11:38:19.532Z,100960.75
2022-10-25T11:40:46.268Z,100965.53
2022-10-25T11:43:14.154Z,100969.13
2022-10-25T11:45:40.933Z,100976.81
2022-10-25T11:48:07.792Z,100979.25
2022-10-25T11:50:34.555Z,100975.81
2022-10-25T11:53:01.329Z,100973.22
2022-10-25T11:55:28.072Z,100977.84
2022-10-25T11:57:54.852Z,100977.78
2022-10-25T12:00:21.702Z,100982.78
2022-10-25T12:02:48.739Z,100980.69
2022-10-25T12:05:15.801Z,100986.84
2022-10-25T12:07:42.563Z,100983.75
2022-10-25T12:10:09.319Z,100991.88
2022-10-25T12:12:36.075Z,100987.78
2022-10-25T12:15:02.861Z,100990.81
2022-10-25T12:17:29.604Z,100985.16
2022-10-25T12:19:56.390Z,100977.06
2022-10-25T12:22:23.178Z,100970.25
2022-10-25T12:24:50.013Z,100983.34
2022-10-25T12:27:16.798Z,100985.41
2022-10-25T12:29:43.589Z,100989.09
2022-10-25T12:32:10.417Z,100991.53
2022-10-25T12:34:37.165Z,100979.94
2022-10-25T12:37:03.919Z,100985.19
2022-10-25T12:39:30.798Z,100987.06
2022-10-25T12:41:57.533Z,100988.59
2022-10-25T12:44:24.285Z,100988.63
2022-10-25T12:46:51.038Z,100982.38
2022-10-25T12:49:17.798Z,101001.22
2022-10-25T12:51:44.553Z,100992.69
2022-10-25T12:54:11.304Z,100992.53
2022-10-25T12:56:38.149Z,100993.63
2022-10-25T12:59:04.972Z,100995.13
2022-10-25T13:01:31.722Z,100996.38
2022-10-25T13:03:58.501Z,100997.34
2022-10-25T13:06:25.416Z,100999.31
2022-10-25T13:08:52.172Z,101005.78
2022-10-25T13:11:18.929Z,101001.88
2022-10-25T13:13:45.998Z,101008.06
2022-10-25T13:16:12.784Z,101008.38
2022-10-25T13:18:39.909Z,101006.22
2022-10-25T13:21:06.699Z,101002.81
2022-10-25T13:23:33.452Z,100997.59
2022-10-25T13:26:00.253Z,101001.38
2022-10-25T13:28:27.010Z,100996.03
2022-10-25T13:30:53.745Z,101005.56
2022-10-25T13:33:27.168Z,101002.03
2022-10-25T13:35:53.919Z,101005.53
2022-10-25T13:38:20.677Z,101008.34
2022-10-25T13:40:47.433Z,101016.63
2022-10-25T13:43:14.185Z,101018.13
2022-10-25T13:45:40.978Z,101011.69
2022-10-25T13:48:07.758Z,101015.63
2022-10-25T13:50:34.498Z,101010.75
2022-10-25T13:53:02.628Z,101013.06
2022-10-25T13:55:29.976Z,101021.81
2022-10-25T13:57:56.928Z,101010.13
2022-10-25T14:00:23.711Z,101019.53
2022-10-25T14:02:50.517Z,101021.47
2022-10-25T14:05:17.260Z,101023.25
2022-10-25T14:07:44.755Z,101018.94
2022-10-25T14:10:11.559Z,101015.66
2022-10-25T14:12:38.356Z,101021.34
2022-10-25T14:15:05.150Z,101010.63
2022-10-25T14:17:31.928Z,101018.28
2022-10-25T14:19:58.822Z,101003.56
2022-10-25T14:22:27.867Z,101007.63
2022-10-25T14:24:57.135Z,101008.84
2022-10-25T14:27:23.878Z,101003.47
2022-10-25T14:29:50.627Z,101005.66
2022-10-25T14:32:17.390Z,101009.50
2022-10-25T14:34:44.142Z,101016.22
2022-10-25T14:37:10.889Z,101014.31
2022-10-25T14:39:37.664Z,101021.97
2022-10-25T14:42:04.992Z,101021.50
2022-10-25T14:44:31.738Z,101022.72
2022-10-25T14:46:58.526Z,101026.94
2022-10-25T14:49:25.345Z,101027.56
2022-10-25T14:51:52.095Z,101023.16
2022-10-25T14:54:19.952Z,101019.06
2022-10-25T14:56:46.693Z,101019.94
2022-10-25T14:59:13.465Z,101019.09
2022-10-25T15:01:40.552Z,101028.72
2022-10-25T15:04:07.338Z,101021.59
2022-10-25T15:06:34.105Z,101023.41
2022-10-25T15:09:36.937Z,101023.16
2022-10-25T15:11:47.658Z,101021.00
2022-10-25T15:14:14.438Z,101023.13
2022-10-25T15:16:41.258Z,101022.59
2022-10-25T15:19:08.060Z,101023.50
2022-10-25T15:21:34.829Z,101024.78
2022-10-25T15:24:01.572Z,101023.75
2022-10-25T15:26:28.352Z,101022.91
2022-10-25T15:28:55.117Z,101031.69
2022-10-25T15:31:24.533Z,101034.75
2022-10-25T15:33:51.649Z,101042.56
2022-10-25T15:36:18.481Z,101032.22
2022-10-25T15:41:31.972Z,101040.22
2022-10-25T15:43:58.742Z,101036.44
2022-10-25T15:46:25.547Z,101027.44
2022-10-25T15:48:52.368Z,101031.06
2022-10-25T15:51:19.110Z,101036.16
2022-10-25T15:53:45.859Z,101028.78
2022-10-25T15:56:12.639Z,101032.34
2022-10-25T15:58:39.450Z,101034.38
2022-10-25T16:01:06.309Z,101036.97
2022-10-25T16:03:33.144Z,101041.34
2022-10-25T16:05:59.971Z,101041.94
2022-10-25T16:08:26.810Z,101045.22
2022-10-25T16:10:53.627Z,101047.31
2022-10-25T16:13:20.433Z,101044.72
2022-10-25T16:15:47.172Z,101045.91
2022-10-25T16:18:14.018Z,101047.94
2022-10-25T16:20:40.892Z,101049.28
2022-10-25T16:23:07.647Z,101042.81
2022-10-25T16:25:34.465Z,101047.81
2022-10-25T16:28:01.472Z,101047.19
2022-10-25T16:30:28.220Z,101056.50
2022-10-25T16:32:54.977Z,101053.06
2022-10-25T16:35:24.186Z,101057.16
2022-10-25T16:37:51.081Z,101066.03
2022-10-25T16:40:17.870Z,101061.03
2022-10-25T16:42:44.644Z,101059.56
2022-10-25T16:45:11.436Z,101067.53
2022-10-25T16:47:38.198Z,101070.00
2022-10-25T16:50:04.942Z,101068.69
2022-10-25T16:52:31.694Z,101060.75
2022-10-25T16:54:58.446Z,101056.44
2022-10-25T16:57:25.198Z,101057.06
2022-10-25T16:59:51.943Z,101066.66
2022-10-25T17:02:18.937Z,101068.28
2022-10-25T17:04:45.708Z,101064.47
2022-10-25T17:07:12.479Z,101069.63
2022-10-25T17:09:39.280Z,101070.66
2022-10-25T17:12:06.027Z,101076.28
2022-10-25T17:14:32.768Z,101074.91
2022-10-25T17:17:03.108Z,101075.34
2022-10-25T17:19:30.197Z,101078.47
2022-10-25T17:21:57.076Z,101080.94
2022-10-25T17:24:23.888Z,101083.47
2022-10-25T17:26:50.677Z,101075.66
2022-10-25T17:29:17.420Z,101083.25
2022-10-25T17:31:44.172Z,101074.69
2022-10-25T17:34:10.919Z,101080.13
2022-10-25T17:36:38.064Z,101086.03
2022-10-25T17:39:04.917Z,101085.50
2022-10-25T17:41:31.699Z,101088.84
2022-10-25T17:43:58.443Z,101092.38
2022-10-25T17:46:25.232Z,101087.34
2022-10-25T17:48:51.975Z,101090.38
2022-10-25T17:51:18.709Z,101086.28
2022-10-25T17:53:45.469Z,101086.00
2022-10-25T17:56:12.837Z,101089.66
2022-10-25T17:58:39.588Z,101085.88
2022-10-25T18:01:06.402Z,101083.75
2022-10-25T18:03:33.373Z,101085.59
2022-10-25T18:06:00.182Z,101089.03
2022-10-25T18:08:26.953Z,101091.09
2022-10-25T18:10:53.777Z,101085.34
2022-10-25T18:13:23.108Z,101089.72
2022-10-25T18:15:50.295Z,101092.22
2022-10-25T18:18:17.100Z,101103.56
2022-10-25T18:20:45.003Z,101098.25
2022-10-25T18:23:13.700Z,101102.66
2022-10-25T18:25:40.764Z,101105.97
2022-10-25T18:28:07.517Z,101106.97
2022-10-25T18:30:34.329Z,101106.75
2022-10-25T18:33:01.072Z,101096.31
2022-10-25T18:35:27.991Z,101102.91
2022-10-25T18:37:57.072Z,101099.44
2022-10-25T18:40:24.222Z,101101.69
2022-10-25T18:42:51.048Z,101107.59
2022-10-25T18:45:17.849Z,101109.19
2022-10-25T18:47:44.695Z,101115.91
2022-10-25T18:50:11.604Z,101107.44
2022-10-25T18:52:38.365Z,101104.47
2022-10-25T18:55:05.168Z,101104.41
2022-10-25T18:57:31.946Z,101106.28
2022-10-25T18:59:58.721Z,101114.88
2022-10-25T19:02:25.587Z,101102.09
2022-10-25T19:04:52.428Z,101111.19
2022-10-25T19:07:19.245Z,101105.53
2022-10-25T19:09:45.989Z,101110.44
2022-10-25T19:12:12.728Z,101101.03
2022-10-25T19:14:39.544Z,101109.59
2022-10-25T19:17:06.412Z,101106.78
2022-10-25T19:19:33.166Z,101111.00
2022-10-25T19:21:59.912Z,101104.63
2022-10-25T19:24:26.711Z,101104.97
2022-10-25T19:26:53.508Z,101112.97
2022-10-25T19:29:20.284Z,101115.47
2022-10-25T19:31:47.012Z,101112.91
2022-10-25T19:34:13.758Z,101108.84
2022-10-25T19:36:40.513Z,101107.34
2022-10-25T19:39:07.281Z,101108.63
2022-10-25T19:41:34.054Z,101102.00
2022-10-25T19:44:00.818Z,101098.94
2022-10-25T19:46:27.612Z,101095.16
2022-10-25T19:48:56.065Z,101094.28
2022-10-25T19:51:22.877Z,101101.13
2022-10-25T19:53:49.761Z,101109.59
2022-10-25T19:56:16.565Z,101106.38
2022-10-25T19:58:43.421Z,101109.25
2022-10-25T20:01:10.401Z,101106.59
2022-10-25T20:03:37.243Z,101108.53
2022-10-25T20:06:04.010Z,101101.72
2022-10-25T20:08:30.753Z,101101.09
2022-10-25T20:10:57.610Z,101105.94
2022-10-25T20:13:24.373Z,101105.53
2022-10-25T20:15:55.487Z,101106.00
2022-10-25T20:18:22.433Z,101107.31
2022-10-25T20:20:53.003Z,101108.72
2022-10-25T20:23:20.662Z,101107.50
2022-10-25T20:25:47.422Z,101108.81
2022-10-25T20:28:14.181Z,101115.69
2022-10-25T20:30:41.006Z,101116.31
2022-10-25T20:33:07.809Z,101126.31
2022-10-25T20:35:34.586Z,101117.56
2022-10-25T20:38:01.341Z,101123.03
2022-10-25T20:40:28.157Z,101129.97
2022-10-25T20:42:54.922Z,101136.03
2022-10-25T20:45:21.676Z,101145.97
2022-10-25T20:47:50.529Z,101145.91
2022-10-25T20:50:17.624Z,101140.00
2022-10-25T20:52:58.618Z,101149.44
2022-10-25T20:55:31.194Z,101151.94
2022-10-25T20:57:57.957Z,101142.81
2022-10-25T21:00:24.785Z,101157.56
2022-10-25T21:02:51.544Z,101148.41
2022-10-25T21:05:18.285Z,101142.38
2022-10-25T21:07:45.177Z,101148.31
2022-10-25T21:10:12.062Z,101149.34
2022-10-25T21:12:38.821Z,101148.94
2022-10-25T21:15:09.449Z,101152.19
2022-10-25T21:17:38.712Z,101138.91
2022-10-25T21:20:05.464Z,101142.66
2022-10-25T21:22:32.231Z,101149.41
2022-10-25T21:24:59.007Z,101152.44
2022-10-25T21:27:25.809Z,101154.78
2022-10-25T21:29:52.625Z,101164.50
2022-10-25T21:32:19.796Z,101160.47
2022-10-25T21:34:46.765Z,101161.50
2022-10-25T21:37:13.514Z,101168.44
2022-10-25T21:39:40.560Z,101168.44
2022-10-25T21:42:07.372Z,101165.22
2022-10-25T21:44:34.199Z,101156.59
2022-10-25T21:47:00.966Z,101153.41
2022-10-25T21:49:27.762Z,101144.41
2022-10-25T21:51:54.498Z,101147.19
2022-10-25T21:54:25.023Z,101138.78
2022-10-25T21:56:52.545Z,101143.53
2022-10-25T21:59:19.370Z,101143.75
2022-10-25T22:01:46.223Z,101141.41
2022-10-25T22:04:13.150Z,101146.84
2022-10-25T22:06:39.978Z,101154.00
2022-10-25T22:09:06.741Z,101159.28
2022-10-25T22:11:33.479Z,101152.22
2022-10-25T22:14:00.216Z,101150.94
2022-10-25T22:16:27.003Z,101160.59
2022-10-25T22:18:54.626Z,101152.38
2022-10-25T22:21:21.482Z,101151.31
2022-10-25T22:23:48.302Z,101142.97
2022-10-25T22:26:15.056Z,101146.81
2022-10-25T22:28:41.854Z,101146.03
2022-10-25T22:31:08.682Z,101135.63
2022-10-25T22:33:35.422Z,101141.16
2022-10-25T22:36:02.417Z,101137.38
2022-10-25T22:38:29.181Z,101139.28
2022-10-25T22:40:55.943Z,101144.72
2022-10-25T22:43:22.689Z,101146.44
2022-10-25T22:45:49.452Z,101144.88
2022-10-25T22:48:16.196Z,101137.84
2022-10-25T22:50:42.939Z,101138.50
2022-10-25T22:53:09.700Z,101148.41
2022-10-25T22:55:36.456Z,101152.22
2022-10-25T22:58:03.201Z,101142.66
2022-10-25T23:00:29.965Z,101152.53
2022-10-25T23:02:56.750Z,101146.03
2022-10-25T23:05:23.508Z,101137.47
2022-10-25T23:07:50.409Z,101131.19
2022-10-25T23:10:18.647Z,101138.09
2022-10-25T23:12:45.590Z,101141.97
2022-10-25T23:15:12.459Z,101145.19
2022-10-25T23:17:39.230Z,101143.94
2022-10-25T23:20:05.988Z,101137.84
2022-10-25T23:22:32.743Z,101152.19
2022-10-25T23:24:59.505Z,101151.09
2022-10-25T23:27:26.248Z,101146.41
2022-10-25T23:29:52.994Z,101147.41
2022-10-25T23:32:19.744Z,101150.13
2022-10-25T23:34:46.489Z,101140.81
2022-10-25T23:37:13.263Z,101141.03
2022-10-25T23:39:40.005Z,101130.53
2022-10-25T23:42:06.749Z,101134.38
2022-10-25T23:44:33.514Z,101135.69
2022-10-25T23:47:00.255Z,101130.22
2022-10-25T23:49:27.056Z,101119.09
2022-10-25T23:51:54.003Z,101119.31
2022-10-25T23:54:20.864Z,101121.28
2022-10-25T23:56:47.666Z,101114.38
2022-10-25T23:59:14.526Z,101127.44
